Time;durP1;ratioP1;P1;durP2;ratioP2;P2;SDS_P1;SDS_P2;PMS_P1;PMS_P2;Temp;Humidity;BMP_temperature;BMP_pressure;BME280_temperature;BME280_humidity;BME280_pressure;Samples;Min_cycle;Max_cycle;Signal;HPM_P1;HPM_P2
2022/01/30 00:09:58;;;;;;;32.97;16.53;;;;;;;4.73;100.00;101224.97;3796981;23;20312;-92
2022/01/30 00:12:44;;;;;;;32.03;16.92;;;;;;;4.63;100.00;101218.69;4937969;29;20071;-92
2022/01/30 00:15:43;;;;;;;31.85;16.02;;;;;;;4.81;100.00;101212.13;4924339;29;20040;-91
2022/01/30 00:19:06;;;;;;;30.00;16.98;;;;;;;4.89;100.00;101214.22;4927500;29;20032;-92
2022/01/30 00:21:49;;;;;;;30.45;16.15;;;;;;;4.98;100.00;101205.66;4926767;29;20111;-90
2022/01/30 00:27:29;;;;;;;28.63;16.48;;;;;;;4.99;100.00;101184.56;4926464;29;20056;-90
2022/01/30 00:30:27;;;;;;;34.22;15.93;;;;;;;4.89;100.00;101177.44;4927459;29;20044;-92
2022/01/30 00:33:20;;;;;;;34.60;16.52;;;;;;;4.96;100.00;101170.81;4941635;29;20071;-91
2022/01/30 00:36:40;;;;;;;33.05;17.67;;;;;;;4.82;100.00;101160.44;4928607;29;20081;-92
2022/01/30 00:39:26;;;;;;;35.40;17.17;;;;;;;4.55;100.00;101158.84;4926490;29;20104;-91
2022/01/30 00:42:42;;;;;;;34.00;16.65;;;;;;;4.42;100.00;101152.78;4932965;29;20040;-91
2022/01/30 00:45:31;;;;;;;32.50;17.08;;;;;;;4.49;100.00;101143.53;5078504;23;20039;-89
2022/01/30 00:48:14;;;;;;;34.28;17.00;;;;;;;4.26;100.00;101160.03;5058935;23;20072;-91
2022/01/30 01:52:19;;;;;;;68.13;33.83;;;;;;;4.08;100.00;101035.38;4976417;23;20411;-90
2022/01/30 02:05:54;;;;;;;75.32;38.15;;;;;;;4.15;100.00;101010.41;4941205;29;20039;-91
2022/01/30 02:31:12;;;;;;;30.33;15.20;;;;;;;3.23;100.00;100980.22;5121102;23;19918;-91
2022/01/30 02:33:47;;;;;;;39.33;20.27;;;;;;;3.38;100.00;100984.44;4926240;29;20304;-91
2022/01/30 02:36:13;;;;;;;35.95;20.02;;;;;;;3.39;100.00;100981.69;4925750;29;20028;-91
2022/01/30 02:39:09;;;;;;;38.65;20.20;;;;;;;3.41;100.00;100979.81;4910515;29;20027;-90
2022/01/30 02:47:00;;;;;;;49.30;25.33;;;;;;;3.73;100.00;100963.63;4940938;23;20040;-90
2022/01/30 02:49:44;;;;;;;47.53;24.63;;;;;;;3.66;100.00;100955.34;4941141;29;20092;-87
2022/01/30 02:52:36;;;;;;;41.38;21.63;;;;;;;3.51;100.00;100952.00;4941417;29;20075;-91
2022/01/30 02:55:05;;;;;;;40.20;20.55;;;;;;;3.23;100.00;100959.25;4939323;29;20039;-89
2022/01/30 02:57:34;;;;;;;45.08;22.20;;;;;;;3.23;100.00;100954.88;4925042;29;20032;-89
2022/01/30 03:00:01;;;;;;;45.28;24.42;;;;;;;3.38;100.00;100953.81;4909127;29;20144;-90
2022/01/30 03:02:32;;;;;;;41.90;23.67;;;;;;;2.97;100.00;100943.53;4938900;29;20139;-88
2022/01/30 03:04:59;;;;;;;40.80;22.67;;;;;;;3.08;100.00;100938.41;4923292;29;20044;-88
2022/01/30 03:07:25;;;;;;;42.55;22.63;;;;;;;3.12;100.00;100918.94;5121200;23;20043;-91
2022/01/30 03:15:33;;;;;;;31.50;16.90;;;;;;;3.38;100.00;100917.13;4079621;26;20043;-89
2022/01/30 03:18:24;;;;;;;41.35;22.27;;;;;;;3.27;100.00;100913.59;4941051;29;20052;-92
2022/01/30 03:20:52;;;;;;;40.92;21.20;;;;;;;3.36;100.00;100913.78;4940954;29;20028;-90
2022/01/30 03:26:20;;;;;;;45.92;23.00;;;;;;;3.10;100.00;100912.13;3553227;23;20040;-90
2022/01/30 03:29:08;;;;;;;44.03;23.30;;;;;;;3.04;100.00;100907.31;4927791;29;20125;-88
2022/01/30 03:42:43;;;;;;;42.87;21.67;;;;;;;3.15;100.00;100910.03;3661147;23;20292;-90
2022/01/30 03:45:33;;;;;;;41.70;21.20;;;;;;;3.16;100.00;100895.16;4940580;29;20048;-92
2022/01/30 03:48:43;;;;;;;51.33;25.30;;;;;;;3.18;100.00;100894.13;4953609;23;20036;-90
2022/01/30 03:51:24;;;;;;;46.75;24.10;;;;;;;3.03;100.00;100896.00;4941500;29;20036;-89
2022/01/30 03:54:13;;;;;;;45.15;24.00;;;;;;;2.96;100.00;100899.13;4936848;29;20067;-92
2022/01/30 03:59:25;;;;;;;47.70;25.05;;;;;;;2.78;100.00;100895.16;5147018;23;20044;-89
2022/01/30 04:04:44;;;;;;;44.75;22.50;;;;;;;2.56;100.00;100891.34;5192708;23;20036;-91
2022/01/30 04:07:52;;;;;;;45.83;23.30;;;;;;;2.27;100.00;100888.97;4944199;29;20024;-91
2022/01/30 04:17:30;;;;;;;47.13;22.23;;;;;;;2.31;100.00;100869.53;4926343;29;20043;-89
2022/01/30 04:20:17;;;;;;;34.90;17.53;;;;;;;2.21;100.00;100863.25;4920484;29;20096;-91
2022/01/30 04:23:40;;;;;;;43.50;22.25;;;;;;;2.31;100.00;100864.31;4903248;29;20029;-91
2022/01/30 04:26:43;;;;;;;43.25;22.83;;;;;;;1.78;100.00;100859.94;5243213;23;20046;-89
2022/01/30 04:29:31;;;;;;;45.22;23.25;;;;;;;1.50;100.00;100856.47;4924189;29;20079;-90
2022/01/30 04:35:28;;;;;;;42.85;22.75;;;;;;;1.53;100.00;100871.09;4991543;23;20087;-89
2022/01/30 05:03:07;;;;;;;62.28;29.35;;;;;;;1.49;100.00;100838.31;4941048;29;20032;-92
2022/01/30 05:06:10;;;;;;;48.15;25.13;;;;;;;1.10;100.00;100836.38;4941243;29;20046;-90
2022/01/30 05:08:58;;;;;;;54.53;26.52;;;;;;;1.09;100.00;100842.56;4937363;29;20048;-90
2022/01/30 05:12:05;;;;;;;51.25;27.02;;;;;;;1.13;100.00;100844.00;4932412;29;20058;-92
2022/01/30 05:14:44;;;;;;;52.55;26.48;;;;;;;1.29;100.00;100839.56;4955325;29;20097;-91
2022/01/30 05:17:29;;;;;;;53.90;26.83;;;;;;;1.16;100.00;100825.56;4927221;29;20024;-92
2022/01/30 05:20:50;;;;;;;57.58;28.80;;;;;;;1.30;100.00;100822.94;4942948;29;20032;-91
2022/01/30 05:24:06;;;;;;;56.43;28.93;;;;;;;1.29;100.00;100831.72;4928469;29;20048;-92
2022/01/30 05:26:48;;;;;;;54.80;28.50;;;;;;;1.42;100.00;100834.41;4913585;29;20037;-91
2022/01/30 05:29:36;;;;;;;50.25;26.20;;;;;;;1.48;100.00;100837.47;4942445;29;20075;-92
2022/01/30 05:32:34;;;;;;;51.97;27.73;;;;;;;1.59;100.00;100828.94;4926128;29;20079;-93
2022/01/30 05:35:25;;;;;;;52.53;27.85;;;;;;;1.83;100.00;100831.75;4927228;29;20059;-92
2022/01/30 05:38:25;;;;;;;60.63;29.27;;;;;;;1.94;100.00;100829.28;4932046;29;20048;-92
2022/01/30 05:41:08;;;;;;;54.88;29.33;;;;;;;2.04;100.00;100831.19;4939936;29;20055;-90
2022/01/30 05:45:09;;;;;;;54.70;28.30;;;;;;;2.14;100.00;100825.34;4910956;29;20564;-91
2022/01/30 05:48:17;;;;;;;53.97;27.98;;;;;;;2.24;100.00;100822.03;4922035;29;20044;-87
2022/01/30 05:51:19;;;;;;;49.05;26.63;;;;;;;2.36;100.00;100826.44;4939555;29;20068;-91
2022/01/30 05:53:56;;;;;;;58.22;28.58;;;;;;;2.37;100.00;100828.13;4939528;29;20041;-91
2022/01/30 05:56:33;;;;;;;47.28;26.95;;;;;;;2.49;100.00;100836.91;4924246;29;20043;-89
2022/01/30 05:59:16;;;;;;;50.17;26.80;;;;;;;2.48;100.00;100835.25;4941190;29;20064;-90
2022/01/30 06:10:38;;;;;;;52.17;26.43;;;;;;;2.04;100.00;100828.59;4465325;27;20048;-90
2022/01/30 06:13:40;;;;;;;50.08;25.52;;;;;;;2.21;100.00;100822.25;4908630;29;20308;-88
2022/01/30 06:16:10;;;;;;;52.00;26.10;;;;;;;1.67;100.00;100825.81;4890717;29;20142;-90
2022/01/30 06:19:12;;;;;;;47.90;26.10;;;;;;;1.35;100.00;100826.09;4915474;29;20048;-88
2022/01/30 06:22:11;;;;;;;52.47;26.17;;;;;;;1.22;100.00;100814.75;4919912;29;20055;-92
2022/01/30 06:25:01;;;;;;;58.25;26.65;;;;;;;1.13;100.00;100814.50;4933548;29;20036;-92
2022/01/30 06:28:13;;;;;;;49.38;26.40;;;;;;;1.30;100.00;100807.25;4894912;29;20053;-91
2022/01/30 06:30:58;;;;;;;53.35;25.48;;;;;;;1.70;100.00;100804.72;4896243;29;20121;-91
2022/01/30 06:34:01;;;;;;;52.30;26.58;;;;;;;1.56;100.00;100809.06;4900566;29;20056;-92
2022/01/30 06:37:05;;;;;;;53.58;26.38;;;;;;;1.62;100.00;100801.78;4906535;29;20080;-92
2022/01/30 06:40:25;;;;;;;55.30;27.20;;;;;;;1.68;100.00;100801.38;4918273;29;20061;-92
2022/01/30 06:43:28;;;;;;;51.85;27.02;;;;;;;1.61;100.00;100800.09;4920664;29;20072;-90
2022/01/30 06:46:33;;;;;;;51.73;26.27;;;;;;;1.41;100.00;100812.66;4912534;29;20044;-91
2022/01/30 06:49:36;;;;;;;58.72;27.30;;;;;;;1.55;100.00;100802.19;4920093;29;20054;-90
2022/01/30 06:52:46;;;;;;;53.78;26.52;;;;;;;1.62;100.00;100805.25;4919005;29;20085;-90
2022/01/30 06:56:10;;;;;;;51.38;25.35;;;;;;;1.67;100.00;100804.94;4888696;29;20032;-91
2022/01/30 06:59:00;;;;;;;61.33;24.73;;;;;;;1.92;100.00;100808.47;4919761;29;20051;-91
2022/01/30 07:07:11;;;;;;;43.03;22.58;;;;;;;2.91;100.00;100817.47;3697745;23;20113;-88
2022/01/30 07:10:13;;;;;;;46.73;22.23;;;;;;;2.95;100.00;100817.13;4935697;29;20067;-90
2022/01/30 07:12:46;;;;;;;42.58;21.48;;;;;;;3.24;100.00;100830.84;4932649;29;20281;-89
2022/01/30 07:15:38;;;;;;;42.85;21.52;;;;;;;3.27;100.00;100828.00;4932516;29;20081;-87
2022/01/30 07:18:35;;;;;;;;;;;;;;;;;;;;;
2022/01/30 07:24:17;;;;;;;43.13;22.60;;;;;;;4.42;100.00;100827.38;4790544;27;20044;-92
2022/01/30 07:26:58;;;;;;;38.83;21.30;;;;;;;4.77;99.20;100831.75;4937808;29;20051;-89
2022/01/30 07:29:24;;;;;;;42.17;21.48;;;;;;;4.54;100.00;100831.69;4921243;29;20055;-88
2022/01/30 07:31:57;;;;;;;39.55;21.52;;;;;;;4.73;98.06;100836.38;4938884;29;20137;-90
2022/01/30 07:34:33;;;;;;;34.63;16.93;;;;;;;5.33;97.14;100843.94;4927802;29;20185;-91
2022/01/30 07:37:03;;;;;;;43.97;22.70;;;;;;;6.28;91.24;100834.50;4941109;29;20076;-90
2022/01/30 07:39:32;;;;;;;42.55;20.92;;;;;;;6.47;87.00;100819.66;4943563;29;20044;-92
2022/01/30 07:41:59;;;;;;;44.60;22.92;;;;;;;6.58;87.54;100826.66;4937513;29;20502;-91
2022/01/30 07:44:33;;;;;;;40.22;21.90;;;;;;;7.26;83.21;100823.38;4935334;29;20040;-89
2022/01/30 07:47:03;;;;;;;43.33;23.17;;;;;;;7.13;82.60;100834.16;4940646;29;20100;-89
2022/01/30 07:49:31;;;;;;;47.83;25.10;;;;;;;7.18;84.42;100831.97;4924907;29;20032;-89
2022/01/30 07:52:16;;;;;;;43.90;24.75;;;;;;;6.85;85.91;100824.34;4924207;29;20028;-90
2022/01/30 07:54:42;;;;;;;46.92;24.60;;;;;;;8.05;80.43;100821.63;4941161;29;20129;-87
2022/01/30 07:57:07;;;;;;;48.97;25.88;;;;;;;8.11;79.74;100823.69;4935707;29;20099;-86
2022/01/30 07:59:33;;;;;;;44.65;25.48;;;;;;;8.15;78.44;100830.38;4921673;29;20060;-85
2022/01/30 08:01:59;;;;;;;54.65;29.55;;;;;;;8.77;77.08;100836.03;4915555;29;20029;-85
2022/01/30 08:04:26;;;;;;;61.25;32.45;;;;;;;8.57;79.00;100834.41;4916240;29;20025;-88
2022/01/30 08:06:51;;;;;;;57.85;31.30;;;;;;;8.57;78.54;100839.69;4923893;29;20493;-87
2022/01/30 08:09:20;;;;;;;52.92;30.38;;;;;;;8.59;78.29;100829.81;4926724;29;20091;-88
2022/01/30 08:11:48;;;;;;;50.40;30.30;;;;;;;8.69;78.27;100829.78;4938353;29;20036;-89
2022/01/30 08:14:14;;;;;;;56.90;31.45;;;;;;;8.66;79.14;100833.53;4917428;29;20041;-87
2022/01/30 08:16:40;;;;;;;58.90;31.35;;;;;;;9.11;76.75;100835.50;4924571;29;20467;-87
2022/01/30 08:19:06;;;;;;;62.03;33.88;;;;;;;8.64;80.14;100829.38;4929988;29;20100;-86
2022/01/30 08:21:32;;;;;;;59.60;34.13;;;;;;;9.53;77.13;100838.50;4916550;29;20036;-88
2022/01/30 08:23:58;;;;;;;61.88;34.53;;;;;;;9.45;75.71;100828.66;4928770;29;20040;-88
2022/01/30 08:26:27;;;;;;;62.90;35.25;;;;;;;8.70;79.88;100827.00;4923711;29;20051;-87
2022/01/30 08:28:53;;;;;;;62.58;35.80;;;;;;;7.94;85.10;100834.94;4929438;29;20045;-86
2022/01/30 08:31:22;;;;;;;59.90;34.63;;;;;;;7.61;87.04;100823.78;4933565;29;20213;-86
2022/01/30 08:33:48;;;;;;;65.63;37.08;;;;;;;6.88;93.15;100831.13;4930873;29;20058;-87
2022/01/30 08:36:18;;;;;;;90.28;44.40;;;;;;;6.72;95.45;100835.09;4934402;29;20378;-86
2022/01/30 08:38:46;;;;;;;79.55;41.75;;;;;;;6.89;96.17;100832.81;4923803;29;20107;-86
2022/01/30 08:41:11;;;;;;;73.28;41.25;;;;;;;6.93;96.53;100834.19;4925927;29;20041;-86
2022/01/30 08:43:37;;;;;;;76.38;40.97;;;;;;;6.84;97.21;100842.91;4912704;29;20057;-87
2022/01/30 08:46:32;;;;;;;83.95;43.45;;;;;;;7.01;97.62;100850.22;4934788;29;20043;-88
2022/01/30 08:48:57;;;;;;;80.45;43.72;;;;;;;6.90;97.84;100842.38;4934336;29;20652;-86
2022/01/30 08:51:26;;;;;;;82.00;44.85;;;;;;;6.73;99.05;100847.28;4937825;29;20044;-87
2022/01/30 08:53:52;;;;;;;83.60;45.22;;;;;;;6.54;100.00;100841.88;4937555;29;20040;-86
2022/01/30 08:56:21;;;;;;;77.50;42.72;;;;;;;6.68;100.00;100844.22;4921268;29;20027;-88
2022/01/30 08:58:47;;;;;;;71.38;40.65;;;;;;;6.60;100.00;100851.91;4925724;29;20045;-86
2022/01/30 09:01:14;;;;;;;78.65;41.95;;;;;;;6.37;100.00;100849.50;4916542;29;20036;-85
2022/01/30 09:03:43;;;;;;;69.30;39.17;;;;;;;6.17;100.00;100838.00;4926726;29;20052;-88
2022/01/30 09:06:15;;;;;;;71.40;39.38;;;;;;;6.19;100.00;100836.09;4928655;29;21496;-85
2022/01/30 09:08:44;;;;;;;74.45;39.22;;;;;;;6.38;100.00;100846.78;4923509;29;20100;-89
2022/01/30 09:13:53;;;;;;;78.00;38.45;;;;;;;6.70;100.00;100847.53;4829737;27;20029;-89
2022/01/30 09:16:22;;;;;;;72.22;37.83;;;;;;;6.61;100.00;100853.59;4884265;29;20055;-84
2022/01/30 09:18:48;;;;;;;68.30;38.10;;;;;;;6.86;100.00;100843.63;4903961;29;20049;-90
2022/01/30 09:23:52;;;;;;;69.25;38.47;;;;;;;6.93;100.00;100850.84;4913773;29;20068;-88
2022/01/30 09:26:28;;;;;;;65.93;36.15;;;;;;;7.11;100.00;100861.63;4895110;29;20080;-87
2022/01/30 09:29:09;;;;;;;64.75;36.10;;;;;;;7.22;100.00;100853.66;4905291;29;20049;-89
2022/01/30 09:31:35;;;;;;;70.47;37.42;;;;;;;6.92;100.00;100851.84;4914007;29;20130;-87
2022/01/30 09:34:02;;;;;;;66.15;36.10;;;;;;;7.14;100.00;100845.56;4922085;29;20057;-87
2022/01/30 09:36:28;;;;;;;64.13;36.65;;;;;;;7.03;100.00;100854.38;4888438;29;20060;-89
2022/01/30 09:44:34;;;;;;;64.07;26.13;;;;;;;7.30;100.00;100853.81;1275761;23;20468;-90
2022/01/30 09:47:34;;;;;;;66.68;34.13;;;;;;;7.64;100.00;100865.72;4919985;29;20044;-81
2022/01/30 09:50:01;;;;;;;60.92;34.10;;;;;;;7.65;100.00;100862.13;4908100;29;20095;-80
2022/01/30 09:52:27;;;;;;;63.67;34.90;;;;;;;7.76;100.00;100864.63;4910410;29;20044;-82
2022/01/30 09:54:52;;;;;;;66.30;35.22;;;;;;;7.53;100.00;100860.53;4912866;29;20047;-83
2022/01/30 09:57:21;;;;;;;61.78;35.05;;;;;;;7.68;100.00;100856.56;4919907;29;20032;-84
2022/01/30 09:59:47;;;;;;;62.13;36.22;;;;;;;7.45;100.00;100859.56;4903503;29;20043;-82
2022/01/30 10:02:14;;;;;;;60.90;35.13;;;;;;;7.54;100.00;100859.59;4919222;29;20088;-81
2022/01/30 10:04:41;;;;;;;70.07;37.38;;;;;;;7.84;100.00;100865.75;4906961;29;20040;-80
2022/01/30 10:07:14;;;;;;;67.18;37.17;;;;;;;7.76;100.00;100866.44;4917126;29;20107;-85
2022/01/30 10:09:46;;;;;;;66.07;37.20;;;;;;;7.82;100.00;100853.53;4913453;29;20064;-80
2022/01/30 10:12:16;;;;;;;69.47;36.75;;;;;;;8.07;100.00;100854.81;4915752;29;20044;-80
2022/01/30 10:15:04;;;;;;;64.03;33.10;;;;;;;7.99;100.00;100859.09;4921411;29;20048;-82
2022/01/30 10:17:40;;;;;;;63.30;32.67;;;;;;;7.96;100.00;100865.50;4910283;29;20047;-81
2022/01/30 10:20:17;;;;;;;60.25;32.55;;;;;;;7.94;100.00;100866.59;4919717;29;20368;-83
2022/01/30 10:23:08;;;;;;;55.17;29.30;;;;;;;8.23;100.00;100860.38;4904466;29;20048;-80
2022/01/30 10:25:49;;;;;;;56.35;30.42;;;;;;;8.29;100.00;100856.38;4924445;29;20036;-82
2022/01/30 10:28:27;;;;;;;56.60;28.15;;;;;;;8.41;99.20;100850.00;4935857;29;20058;-82
2022/01/30 10:31:00;;;;;;;52.22;28.33;;;;;;;8.39;99.88;100849.28;4916642;29;20040;-82
2022/01/30 10:38:51;;;;;;;71.63;29.65;;;;;;;8.64;98.52;100840.78;4932326;29;20327;-85
2022/01/30 10:41:41;;;;;;;56.75;28.40;;;;;;;8.34;99.89;100833.03;4934603;29;20024;-81
2022/01/30 10:44:09;;;;;;;54.10;28.38;;;;;;;8.35;100.00;100840.00;5107094;23;20021;-81
2022/01/30 10:46:47;;;;;;;78.35;31.20;;;;;;;8.44;100.00;100833.88;4937270;29;20056;-85
2022/01/30 10:49:17;;;;;;;74.97;30.63;;;;;;;8.62;99.95;100828.69;4913410;29;20048;-83
2022/01/30 10:51:53;;;;;;;77.40;32.28;;;;;;;8.61;100.00;100825.22;4910835;29;20047;-82
2022/01/30 10:54:32;;;;;;;61.85;29.60;;;;;;;8.74;98.40;100824.91;4916744;23;20024;-84
2022/01/30 10:57:12;;;;;;;48.92;26.05;;;;;;;8.73;97.80;100821.44;4925888;29;20071;-83
2022/01/30 10:59:43;;;;;;;55.53;27.35;;;;;;;8.89;96.86;100817.34;4924698;29;20044;-83
2022/01/30 11:02:17;;;;;;;51.47;26.67;;;;;;;9.00;96.93;100815.38;4921436;29;20044;-83
2022/01/30 11:04:44;;;;;;;49.70;26.58;;;;;;;9.03;97.07;100799.22;4924322;29;20052;-84
2022/01/30 11:07:10;;;;;;;57.55;26.25;;;;;;;9.31;95.11;100805.38;4926781;29;20066;-86
2022/01/30 11:09:43;;;;;;;48.75;26.75;;;;;;;9.34;94.27;100803.25;4927860;29;20080;-86
2022/01/30 11:12:13;;;;;;;58.08;27.08;;;;;;;9.16;95.02;100798.88;4927512;29;20115;-85
2022/01/30 11:17:22;;;;;;;46.83;24.60;;;;;;;9.56;93.05;100780.84;4928965;29;20398;-89
2022/01/30 11:19:56;;;;;;;50.20;27.13;;;;;;;9.28;94.79;100789.75;4928082;29;20047;-83
2022/01/30 11:22:28;;;;;;;48.47;25.95;;;;;;;9.52;93.27;100779.47;4926918;29;20047;-87
2022/01/30 11:25:13;;;;;;;51.85;26.42;;;;;;;9.39;93.80;100770.22;4910196;29;20501;-86
2022/01/30 11:27:46;;;;;;;48.38;25.85;;;;;;;9.53;93.64;100775.00;4922779;29;20036;-84
2022/01/30 11:30:12;;;;;;;47.60;25.67;;;;;;;9.67;93.05;100770.06;4926244;29;20051;-87
2022/01/30 11:32:39;;;;;;;52.33;26.27;;;;;;;9.70;93.16;100756.53;4928621;29;20032;-82
2022/01/30 11:35:06;;;;;;;49.00;25.95;;;;;;;9.73;92.09;100761.50;4925434;29;20051;-86
2022/01/30 11:37:39;;;;;;;48.40;25.40;;;;;;;9.91;91.46;100758.03;4925880;29;20084;-88
2022/01/30 11:40:17;;;;;;;53.22;26.00;;;;;;;9.85;90.56;100760.28;4925382;29;20044;-84
2022/01/30 11:42:51;;;;;;;45.97;24.08;;;;;;;9.77;90.15;100752.28;4927538;29;20072;-89
2022/01/30 11:45:41;;;;;;;51.90;24.15;;;;;;;9.75;91.86;100738.34;4935459;29;20064;-84
2022/01/30 11:48:15;;;;;;;53.65;26.35;;;;;;;9.81;91.09;100740.38;4923566;29;20654;-87
2022/01/30 11:51:01;;;;;;;49.95;26.10;;;;;;;9.74;91.17;100751.75;4929987;29;20032;-83
2022/01/30 11:53:28;;;;;;;80.43;36.25;;;;;;;9.90;91.70;100735.19;4926065;29;20036;-86
2022/01/30 11:56:02;;;;;;;51.75;27.50;;;;;;;9.93;91.74;100732.22;4886707;29;1213224;-84
2022/01/30 11:58:33;;;;;;;46.72;23.80;;;;;;;10.02;90.22;100731.31;4930605;29;20036;-84
2022/01/30 12:01:37;;;;;;;48.83;27.35;;;;;;;10.29;89.93;100725.91;4938627;28;20025;-88
2022/01/30 12:04:09;;;;;;;59.92;28.00;;;;;;;10.13;89.83;100720.47;4882969;29;20092;-86
2022/01/30 12:06:40;;;;;;;46.13;25.55;;;;;;;10.53;87.84;100715.47;4883176;29;20045;-85
2022/01/30 12:09:22;;;;;;;48.17;25.95;;;;;;;10.39;87.71;100721.34;4883183;29;20037;-87
2022/01/30 12:11:50;;;;;;;52.42;25.17;;;;;;;10.24;88.32;100709.69;4879903;29;20050;-84
2022/01/30 12:14:19;;;;;;;50.00;24.85;;;;;;;9.94;90.19;100705.63;4882665;29;20053;-87
2022/01/30 12:16:57;;;;;;;51.85;25.25;;;;;;;9.94;90.53;100704.78;4883049;29;20040;-86
2022/01/30 12:19:41;;;;;;;48.60;24.38;;;;;;;10.10;90.03;100684.56;4884593;29;20052;-85
2022/01/30 12:22:19;;;;;;;46.20;24.20;;;;;;;10.18;90.09;100678.50;4943820;28;20036;-84
2022/01/30 12:24:51;;;;;;;45.17;25.75;;;;;;;10.03;90.66;100672.06;4942871;28;20024;-83
2022/01/30 12:27:47;;;;;;;46.05;25.77;;;;;;;10.20;90.40;100673.88;4942481;29;20032;-87
2022/01/30 12:30:47;;;;;;;43.10;23.75;;;;;;;10.25;90.42;100661.00;4956690;23;20067;-87
2022/01/30 12:33:39;;;;;;;49.53;25.70;;;;;;;10.24;89.94;100662.81;4943378;28;20080;-87
2022/01/30 12:36:13;;;;;;;43.57;24.30;;;;;;;10.30;90.21;100656.06;4942922;29;20116;-84
2022/01/30 12:38:41;;;;;;;47.85;24.70;;;;;;;10.30;90.34;100653.41;4942500;29;20032;-87
2022/01/30 12:41:16;;;;;;;47.78;25.65;;;;;;;10.35;90.37;100645.81;4942096;29;20092;-86
2022/01/30 12:43:42;;;;;;;46.85;25.63;;;;;;;10.35;90.16;100646.66;4942571;28;20036;-87
2022/01/30 12:46:09;;;;;;;46.35;25.85;;;;;;;10.59;89.27;100631.84;4941326;29;20043;-85
2022/01/30 12:48:35;;;;;;;42.97;24.85;;;;;;;10.75;87.60;100622.16;4940716;29;20040;-87
2022/01/30 12:51:05;;;;;;;46.22;25.48;;;;;;;10.70;88.79;100619.16;4915794;29;20044;-85
2022/01/30 12:53:35;;;;;;;44.03;23.98;;;;;;;10.69;86.78;100612.19;4942491;29;20032;-87
2022/01/30 12:56:01;;;;;;;49.47;24.30;;;;;;;10.67;87.17;100608.84;4941793;29;20026;-84
2022/01/30 12:58:33;;;;;;;44.70;25.33;;;;;;;10.75;87.33;100605.41;4938265;29;20068;-86
2022/01/30 13:01:15;;;;;;;32.88;17.77;;;;;;;10.82;87.41;100611.72;4935871;29;20032;-86
2022/01/30 13:03:43;;;;;;;52.67;25.23;;;;;;;10.97;86.58;100609.28;4929698;29;20036;-87
2022/01/30 13:06:09;;;;;;;49.78;24.60;;;;;;;10.90;85.76;100599.31;4935659;29;20044;-85
2022/01/30 13:08:49;;;;;;;43.88;24.65;;;;;;;11.17;84.16;100597.41;4934371;29;20036;-83
2022/01/30 13:11:19;;;;;;;42.22;23.60;;;;;;;11.08;84.51;100585.09;4933648;29;20040;-83
2022/01/30 13:13:55;;;;;;;51.22;24.38;;;;;;;10.83;86.98;100574.47;4930676;29;20064;-84
2022/01/30 13:16:32;;;;;;;42.17;25.33;;;;;;;10.60;88.33;100580.53;4930320;29;20084;-83
2022/01/30 13:18:59;;;;;;;46.47;24.65;;;;;;;10.97;86.79;100577.47;4942642;29;20049;-85
2022/01/30 13:21:31;;;;;;;48.15;24.77;;;;;;;10.94;86.49;100572.50;4940759;29;20028;-87
2022/01/30 13:23:58;;;;;;;50.15;25.83;;;;;;;10.84;86.94;100578.75;4937650;29;20037;-88
2022/01/30 13:26:28;;;;;;;47.22;24.70;;;;;;;10.84;87.55;100570.78;4905441;29;20060;-87
2022/01/30 13:28:54;;;;;;;47.35;26.15;;;;;;;10.86;87.59;100571.50;4906023;29;20036;-87
2022/01/30 13:31:20;;;;;;;47.60;25.50;;;;;;;10.98;86.71;100579.09;4903949;29;20036;-85
2022/01/30 13:34:04;;;;;;;47.17;25.85;;;;;;;11.01;86.58;100568.16;4904608;29;20051;-87
2022/01/30 13:36:30;;;;;;;49.22;25.88;;;;;;;11.14;86.42;100563.22;4906792;29;20040;-85
2022/01/30 13:42:26;;;;;;;45.70;25.42;;;;;;;11.13;85.93;100572.19;5009171;23;20104;-86
2022/01/30 13:44:53;;;;;;;48.25;26.23;;;;;;;11.20;85.97;100578.50;4941621;29;20058;-87
2022/01/30 13:47:22;;;;;;;47.17;25.95;;;;;;;11.41;85.17;100565.53;4925423;29;20039;-85
2022/01/30 13:49:49;;;;;;;51.95;25.20;;;;;;;11.46;84.94;100568.56;4921761;29;20043;-85
2022/01/30 13:52:20;;;;;;;49.80;26.23;;;;;;;11.13;86.54;100566.88;4924018;29;20032;-87
2022/01/30 13:55:07;;;;;;;47.80;25.02;;;;;;;11.40;84.59;100569.22;4913442;29;20072;-86
2022/01/30 13:57:37;;;;;;;48.03;27.65;;;;;;;11.38;85.31;100571.19;4916201;29;20030;-84
2022/01/30 14:00:19;;;;;;;42.33;25.48;;;;;;;11.30;86.09;100571.22;4917101;29;20051;-85
2022/01/30 14:02:57;;;;;;;55.10;28.17;;;;;;;11.08;86.85;100569.19;4925063;29;20068;-85
2022/01/30 14:05:33;;;;;;;46.60;26.92;;;;;;;11.24;85.99;100574.50;4921873;29;20058;-85
2022/01/30 14:08:09;;;;;;;48.90;28.00;;;;;;;11.30;85.99;100568.56;4908878;29;20063;-85
2022/01/30 14:13:28;;;;;;;49.47;27.00;;;;;;;11.48;84.49;100581.63;5018951;23;20048;-83
2022/01/30 14:16:02;;;;;;;50.65;25.13;;;;;;;11.45;84.62;100581.97;4915997;29;20051;-85
2022/01/30 14:18:34;;;;;;;54.63;27.08;;;;;;;11.48;84.46;100576.31;4910679;29;20028;-85
2022/01/30 14:20:59;;;;;;;43.22;24.60;;;;;;;11.34;85.22;100572.50;4923651;29;20126;-86
2022/01/30 14:23:33;;;;;;;47.55;24.35;;;;;;;11.50;84.67;100569.84;4911079;29;20043;-84
2022/01/30 14:25:59;;;;;;;54.53;26.67;;;;;;;11.50;84.79;100582.31;4909788;29;20036;-85
2022/01/30 14:28:35;;;;;;;46.58;26.50;;;;;;;11.33;84.97;100569.03;4917934;29;20067;-84
2022/01/30 14:31:18;;;;;;;51.25;26.85;;;;;;;11.59;84.88;100576.84;4919705;23;20076;-85
2022/01/30 14:33:46;;;;;;;47.53;25.60;;;;;;;11.33;85.47;100589.44;4921100;29;20032;-87
2022/01/30 14:36:12;;;;;;;56.85;26.20;;;;;;;11.36;85.39;100581.16;4907427;29;20483;-83
2022/01/30 14:38:43;;;;;;;43.85;25.38;;;;;;;11.54;84.71;100586.28;4929596;23;20024;-85
2022/01/30 14:41:10;;;;;;;55.90;27.25;;;;;;;11.67;83.91;100584.78;4971181;23;20053;-85
2022/01/30 14:43:35;;;;;;;51.17;26.38;;;;;;;11.60;83.95;100553.78;4900523;29;20044;-89
2022/01/30 14:46:01;;;;;;;48.13;27.40;;;;;;;11.13;87.14;100586.28;4910236;29;20131;-87
2022/01/30 14:48:26;;;;;;;51.75;27.08;;;;;;;11.21;86.12;100566.88;4892222;29;20036;-86
2022/01/30 14:50:52;;;;;;;51.92;28.60;;;;;;;11.08;87.96;100563.88;4905275;29;20032;-84
2022/01/30 14:53:18;;;;;;;51.83;26.90;;;;;;;11.13;86.73;100569.53;4900287;29;20115;-85
2022/01/30 14:55:44;;;;;;;48.95;26.33;;;;;;;11.26;86.65;100581.31;4883698;29;20046;-85
2022/01/30 14:58:12;;;;;;;48.10;26.38;;;;;;;11.20;86.78;100551.97;4905889;29;20596;-86
2022/01/30 15:00:38;;;;;;;47.72;27.73;;;;;;;11.18;87.41;100570.69;4908358;29;20056;-84
2022/01/30 15:03:04;;;;;;;63.25;35.22;;;;;;;11.55;85.62;100578.16;4884773;29;20041;-87
2022/01/30 15:05:30;;;;;;;54.42;28.17;;;;;;;11.31;86.13;100581.63;4915564;29;20096;-86
2022/01/30 15:07:55;;;;;;;51.33;28.17;;;;;;;11.11;87.08;100574.16;4903618;29;20029;-86
2022/01/30 15:10:25;;;;;;;55.22;30.65;;;;;;;11.11;87.81;100563.53;4900017;29;20387;-86
2022/01/30 15:12:51;;;;;;;51.30;26.05;;;;;;;11.40;85.97;100564.72;4906293;29;20089;-84
2022/01/30 15:15:17;;;;;;;49.58;28.35;;;;;;;11.02;88.44;100567.19;4899992;29;20119;-84
2022/01/30 15:17:43;;;;;;;47.75;27.45;;;;;;;11.20;87.69;100557.28;4917898;29;20549;-85
2022/01/30 15:20:12;;;;;;;46.95;28.48;;;;;;;11.03;88.74;100560.91;4900544;29;20032;-86
2022/01/30 15:22:38;;;;;;;44.70;26.40;;;;;;;10.99;89.62;100564.88;4918797;29;20040;-85
2022/01/30 15:25:06;;;;;;;47.22;27.55;;;;;;;11.04;90.12;100573.97;4918374;29;20036;-86
2022/01/30 15:27:32;;;;;;;52.50;28.40;;;;;;;10.94;90.93;100562.69;4918103;29;20055;-88
2022/01/30 15:29:58;;;;;;;56.13;30.95;;;;;;;10.81;91.65;100573.78;4918307;29;20036;-87
2022/01/30 15:32:23;;;;;;;54.30;30.02;;;;;;;11.11;90.10;100568.84;4918454;29;20510;-87
2022/01/30 15:34:49;;;;;;;54.90;30.25;;;;;;;11.04;91.17;100573.16;4900444;29;20072;-85